Darstellungsparameter: Aktuell verwendete Einstellungen:
Skalierung der Graphiken ... ?
xyx+y,   Skalierungsfaktor:      Skalierung: Modus: x, Faktor: 1
Darstellungszeitraum ... ?
Vom - - bis: - -   Zeitraum: 24.10.2020 - 26.10.2020
Min/Max/Avg-Anzeige ... ?
Zeige MMA aktuell
Zeige MMA Monat
Zeige MMA alles
Zeige --A aktuell
Zeige --A Monat
Zeige --A alles
Keine MMA-Anzeige
MMA:
Average (ber die Originaldaten)
MMA-Basis: 24.10.2020 - 26.10.2020
Quicknavigation für Darstellung... ?
Tage:      1T, 2T, 3T, 5T -1T -2T -3T -5T +1T +2T +3T +5T
Wochen: 1W, 2W, 3W -1W -2W -3W +1W +2W +3W
Monate: 1M, 3M, 6M -1M -3M -6M +1M +3M +6M
Jahre:    1J, 3J, 5J, 10J -1J -3J -5J -10J +1J +3J +5J +10J
Nutze für die Darstellung ... ?
Originaldaten oder Mittelwerte auf ...
Stundenbasis Tagesbasis Wochenbasis
Monatsbasis Jahresbasis      Datenbasis: Original-Daten
Darstellen als:
Statistik (Auto) Statistik J:M      Darstellung:
Zur Graphik,    zurück zur Übersicht aller Sensoren.
 
Tabellarische Datenbersicht: ?
 
Sensor: Nr:Datum:Temp:Abs-Feuchte:Windchill:Wind:
Aussen-T/F 1 24-10-2020 00:00:00 12.7 C 10.69 g/m*3 12.7 C 8.1 km/h
2 24-10-2020 00:05:00 12.7 C 10.69 g/m*3 12.7 C 9.7 km/h
3 24-10-2020 00:10:00 12.8 C 10.75 g/m*3 12.8 C 8.1 km/h
4 24-10-2020 00:15:00 12.8 C 10.75 g/m*3 12.8 C 8.1 km/h
5 24-10-2020 00:20:00 12.8 C 10.75 g/m*3 12.8 C 11.3 km/h
6 24-10-2020 00:25:00 12.8 C 10.75 g/m*3 12.8 C 6.4 km/h
7 24-10-2020 00:30:00 12.8 C 10.75 g/m*3 12.8 C 11.3 km/h
8 24-10-2020 00:35:00 12.8 C 10.75 g/m*3 12.8 C 8.1 km/h
9 24-10-2020 00:40:00 12.8 C 10.75 g/m*3 12.8 C 6.4 km/h
10 24-10-2020 00:45:00 12.8 C 10.64 g/m*3 12.8 C 8.1 km/h
11 24-10-2020 00:50:00 12.7 C 10.58 g/m*3 12.7 C 6.4 km/h
12 24-10-2020 00:55:00 12.7 C 10.58 g/m*3 12.7 C 4.8 km/h
13 24-10-2020 01:00:00 12.7 C 10.58 g/m*3 12.7 C 4.8 km/h
14 24-10-2020 01:05:00 12.6 C 10.51 g/m*3 12.6 C 4.8 km/h
15 24-10-2020 01:10:00 12.6 C 10.51 g/m*3 12.6 C 3.2 km/h
16 24-10-2020 01:15:00 12.5 C 10.44 g/m*3 12.5 C 6.4 km/h
17 24-10-2020 01:20:00 12.5 C 10.44 g/m*3 12.5 C 6.4 km/h
18 24-10-2020 01:25:00 12.5 C 10.44 g/m*3 12.5 C 6.4 km/h
19 24-10-2020 01:30:00 12.6 C 10.51 g/m*3 12.6 C 11.3 km/h
20 24-10-2020 01:35:00 12.7 C 10.58 g/m*3 12.7 C 11.3 km/h
21 24-10-2020 01:40:00 12.8 C 10.64 g/m*3 12.8 C 11.3 km/h
22 24-10-2020 01:45:00 12.8 C 10.53 g/m*3 12.8 C 8.1 km/h
23 24-10-2020 01:50:00 12.8 C 10.53 g/m*3 12.8 C 6.4 km/h
24 24-10-2020 01:55:00 12.8 C 10.53 g/m*3 12.8 C 3.2 km/h
25 24-10-2020 02:00:00 12.8 C 10.53 g/m*3 12.8 C 4.8 km/h
Sensor: Nr:Datum:Temp:Abs-Feuchte:Windchill:Wind:
Aussen-T/F 26 24-10-2020 02:05:00 12.7 C 10.46 g/m*3 12.7 C 6.4 km/h
27 24-10-2020 02:10:00 12.8 C 10.53 g/m*3 12.8 C 6.4 km/h
28 24-10-2020 02:15:00 12.7 C 10.46 g/m*3 12.7 C 0 km/h
29 24-10-2020 02:20:00 12.6 C 10.4 g/m*3 12.6 C 0 km/h
30 24-10-2020 02:25:00 12.4 C 10.16 g/m*3 12.4 C 0 km/h
31 24-10-2020 02:30:00 12.3 C 10.21 g/m*3 12.3 C 0 km/h
32 24-10-2020 02:35:00 12.3 C 10.21 g/m*3 12.3 C 0 km/h
33 24-10-2020 02:40:00 12.2 C 10.14 g/m*3 12.2 C 0 km/h
34 24-10-2020 02:45:00 12 C 10.02 g/m*3 12 C 0 km/h
35 24-10-2020 02:50:00 11.9 C 9.96 g/m*3 11.9 C 0 km/h
36 24-10-2020 02:55:00 11.8 C 9.89 g/m*3 11.8 C 1.6 km/h
37 24-10-2020 03:00:00 11.8 C 9.89 g/m*3 11.8 C 0 km/h
38 24-10-2020 03:05:00 11.8 C 10 g/m*3 11.8 C 4.8 km/h
39 24-10-2020 03:10:00 11.8 C 10 g/m*3 11.8 C 1.6 km/h
40 24-10-2020 03:15:00 11.7 C 9.83 g/m*3 11.7 C 0 km/h
41 24-10-2020 03:20:00 11.6 C 9.77 g/m*3 11.6 C 0 km/h
42 24-10-2020 03:25:00 11.5 C 9.71 g/m*3 11.5 C 0 km/h
43 24-10-2020 03:30:00 11.4 C 9.75 g/m*3 11.4 C 0 km/h
44 24-10-2020 03:35:00 11.3 C 9.69 g/m*3 11.3 C 0 km/h
45 24-10-2020 03:40:00 11.3 C 9.69 g/m*3 11.3 C 0 km/h
46 24-10-2020 03:45:00 11.3 C 9.69 g/m*3 11.3 C 0 km/h
47 24-10-2020 03:50:00 11.3 C 9.69 g/m*3 11.3 C 0 km/h
48 24-10-2020 03:55:00 11.2 C 9.63 g/m*3 11.2 C 0 km/h
49 24-10-2020 04:00:00 11.1 C 9.57 g/m*3 11.1 C 0 km/h
50 24-10-2020 04:05:00 11.1 C 9.57 g/m*3 11.1 C 0 km/h
Sensor: Nr:Datum:Temp:Abs-Feuchte:Windchill:Wind:
Aussen-T/F 51 24-10-2020 04:10:00 10.9 C 9.45 g/m*3 10.9 C 0 km/h
52 24-10-2020 04:15:00 10.9 C 9.45 g/m*3 10.9 C 0 km/h
53 24-10-2020 04:20:00 10.9 C 9.45 g/m*3 10.9 C 0 km/h
54 24-10-2020 04:25:00 11 C 9.61 g/m*3 11 C 0 km/h
55 24-10-2020 04:30:00 11 C 9.61 g/m*3 11 C 0 km/h
56 24-10-2020 04:35:00 11.1 C 9.67 g/m*3 11.1 C 0 km/h
57 24-10-2020 04:40:00 11.1 C 9.67 g/m*3 11.1 C 0 km/h
58 24-10-2020 04:45:00 11.1 C 9.67 g/m*3 11.1 C 0 km/h
59 24-10-2020 04:50:00 11.2 C 9.73 g/m*3 11.2 C 0 km/h
60 24-10-2020 04:55:00 11.1 C 9.67 g/m*3 11.1 C 0 km/h
61 24-10-2020 05:00:00 11 C 9.61 g/m*3 11 C 0 km/h
62 24-10-2020 05:05:00 10.9 C 9.55 g/m*3 10.9 C 0 km/h
63 24-10-2020 05:10:00 10.9 C 9.55 g/m*3 10.9 C 0 km/h
64 24-10-2020 05:15:00 10.9 C 9.55 g/m*3 10.9 C 0 km/h
65 24-10-2020 05:20:00 10.9 C 9.55 g/m*3 10.9 C 0 km/h
66 24-10-2020 05:25:00 11.1 C 9.67 g/m*3 11.1 C 0 km/h
67 24-10-2020 05:30:00 11.1 C 9.67 g/m*3 11.1 C 3.2 km/h
68 24-10-2020 05:35:00 11.2 C 9.73 g/m*3 11.2 C 3.2 km/h
69 24-10-2020 05:40:00 11.2 C 9.73 g/m*3 11.2 C 0 km/h
70 24-10-2020 05:45:00 11.1 C 9.67 g/m*3 11.1 C 1.6 km/h
71 24-10-2020 05:50:00 11.1 C 9.67 g/m*3 11.1 C 1.6 km/h
72 24-10-2020 05:55:00 11 C 9.61 g/m*3 11 C 3.2 km/h
73 24-10-2020 06:00:00 11 C 9.61 g/m*3 11 C 3.2 km/h
74 24-10-2020 06:05:00 11 C 9.61 g/m*3 11 C 0 km/h
75 24-10-2020 06:10:00 11 C 9.61 g/m*3 11 C 1.6 km/h
Sensor: Nr:Datum:Temp:Abs-Feuchte:Windchill:Wind:
Aussen-T/F 76 24-10-2020 06:15:00 11.1 C 9.67 g/m*3 11.1 C 1.6 km/h
77 24-10-2020 06:20:00 11.1 C 9.67 g/m*3 11.1 C 1.6 km/h
78 24-10-2020 06:25:00 11.1 C 9.67 g/m*3 11.1 C 3.2 km/h
79 24-10-2020 06:30:00 11.1 C 9.67 g/m*3 11.1 C 1.6 km/h
80 24-10-2020 06:35:00 11.2 C 9.73 g/m*3 11.2 C 0 km/h
81 24-10-2020 06:40:00 11.2 C 9.73 g/m*3 11.2 C 0 km/h
82 24-10-2020 06:45:00 11.3 C 9.89 g/m*3 11.3 C 1.6 km/h
83 24-10-2020 06:50:00 11.3 C 9.79 g/m*3 11.3 C 1.6 km/h
84 24-10-2020 06:55:00 11.3 C 9.79 g/m*3 11.3 C 0 km/h
85 24-10-2020 07:00:00 11.4 C 9.96 g/m*3 11.4 C 0 km/h
86 24-10-2020 07:05:00 11.4 C 9.96 g/m*3 11.4 C 3.2 km/h
87 24-10-2020 07:10:00 11.5 C 10.02 g/m*3 11.5 C 8.1 km/h
88 24-10-2020 07:15:00 11.6 C 10.08 g/m*3 11.6 C 1.6 km/h
89 24-10-2020 07:20:00 11.6 C 10.08 g/m*3 11.6 C 0 km/h
90 24-10-2020 07:25:00 11.7 C 10.15 g/m*3 11.7 C 1.6 km/h
91 24-10-2020 07:30:00 11.7 C 10.15 g/m*3 11.7 C 0 km/h
92 24-10-2020 07:35:00 11.8 C 10.21 g/m*3 11.8 C 0 km/h
93 24-10-2020 07:40:00 11.8 C 10.21 g/m*3 11.8 C 0 km/h
94 24-10-2020 07:45:00 11.8 C 10.21 g/m*3 11.8 C 0 km/h
95 24-10-2020 07:50:00 11.8 C 10.21 g/m*3 11.8 C 8.1 km/h
96 24-10-2020 07:55:00 11.8 C 10.21 g/m*3 11.8 C 4.8 km/h
97 24-10-2020 08:00:00 11.7 C 10.15 g/m*3 11.7 C 1.6 km/h
98 24-10-2020 08:05:00 11.6 C 9.98 g/m*3 11.6 C 6.4 km/h
99 24-10-2020 08:10:00 11.7 C 10.15 g/m*3 11.7 C 11.3 km/h
100 24-10-2020 08:15:00 11.9 C 10.27 g/m*3 11.9 C 12.9 km/h
Sensor: Nr:Datum:Temp:Abs-Feuchte:Windchill:Wind:
Aussen-T/F 101 24-10-2020 08:20:00 11.9 C 10.17 g/m*3 11.9 C 3.2 km/h
102 24-10-2020 08:25:00 11.9 C 10.17 g/m*3 11.9 C 9.7 km/h
103 24-10-2020 08:30:00 12 C 10.23 g/m*3 12 C 8.1 km/h
104 24-10-2020 08:35:00 12 C 10.23 g/m*3 12 C 4.8 km/h
105 24-10-2020 08:40:00 12.1 C 10.29 g/m*3 12.1 C 14.5 km/h
106 24-10-2020 08:45:00 12.2 C 10.25 g/m*3 12.2 C 11.3 km/h
107 24-10-2020 08:50:00 12.3 C 10.32 g/m*3 12.3 C 12.9 km/h
108 24-10-2020 08:55:00 12.3 C 10.21 g/m*3 12.3 C 11.3 km/h
109 24-10-2020 09:00:00 12.4 C 10.27 g/m*3 12.4 C 9.7 km/h
110 24-10-2020 09:05:00 12.6 C 10.29 g/m*3 12.6 C 19.3 km/h
111 24-10-2020 09:10:00 12.6 C 10.18 g/m*3 12.6 C 12.9 km/h
112 24-10-2020 09:15:00 12.8 C 10.19 g/m*3 12.8 C 24.1 km/h
113 24-10-2020 09:20:00 13 C 10.21 g/m*3 13 C 20.9 km/h
114 24-10-2020 09:25:00 13.1 C 10.16 g/m*3 13.1 C 14.5 km/h
115 24-10-2020 09:30:00 13.2 C 10.1 g/m*3 13.2 C 25.7 km/h
116 24-10-2020 09:35:00 13.2 C 10.1 g/m*3 13.2 C 19.3 km/h
117 24-10-2020 09:40:00 13.2 C 9.99 g/m*3 13.2 C 17.7 km/h
118 24-10-2020 09:45:00 13.3 C 10.05 g/m*3 13.3 C 30.6 km/h
119 24-10-2020 09:50:00 13.3 C 10.05 g/m*3 13.3 C 11.3 km/h
120 24-10-2020 09:55:00 13.3 C 10.05 g/m*3 13.3 C 17.7 km/h
121 24-10-2020 10:00:00 13.3 C 10.05 g/m*3 13.3 C 19.3 km/h
122 24-10-2020 10:05:00 13.3 C 9.94 g/m*3 13.3 C 17.7 km/h
123 24-10-2020 10:10:00 13.4 C 10.11 g/m*3 13.4 C 16.1 km/h
124 24-10-2020 10:15:00 13.4 C 10 g/m*3 13.4 C 12.9 km/h
125 24-10-2020 10:20:00 13.4 C 10 g/m*3 13.4 C 12.9 km/h
Sensor: Nr:Datum:Temp:Abs-Feuchte:Windchill:Wind:
Aussen-T/F 126 24-10-2020 10:25:00 13.4 C 10.11 g/m*3 13.4 C 16.1 km/h
127 24-10-2020 10:30:00 13.4 C 10 g/m*3 13.4 C 11.3 km/h
128 24-10-2020 10:35:00 13.4 C 10 g/m*3 13.4 C 14.5 km/h
129 24-10-2020 10:40:00 13.5 C 9.94 g/m*3 13.5 C 16.1 km/h
130 24-10-2020 10:45:00 13.6 C 10 g/m*3 13.6 C 12.9 km/h
131 24-10-2020 10:50:00 13.6 C 10 g/m*3 13.6 C 12.9 km/h
132 24-10-2020 10:55:00 13.6 C 9.65 g/m*3 13.6 C 16.1 km/h
133 24-10-2020 11:00:00 13.6 C 9.42 g/m*3 13.6 C 25.7 km/h
134 24-10-2020 11:05:00 13.4 C 9.18 g/m*3 13.4 C 16.1 km/h
135 24-10-2020 11:10:00 13.4 C 9.07 g/m*3 13.4 C 19.3 km/h
136 24-10-2020 11:15:00 13.3 C 9.01 g/m*3 13.3 C 24.1 km/h
137 24-10-2020 11:20:00 13.3 C 9.01 g/m*3 13.3 C 20.9 km/h
138 24-10-2020 11:25:00 13.3 C 9.01 g/m*3 13.3 C 24.1 km/h
139 24-10-2020 11:30:00 13.3 C 9.01 g/m*3 13.3 C 17.7 km/h
140 24-10-2020 11:35:00 13.2 C 8.96 g/m*3 13.2 C 12.9 km/h
141 24-10-2020 11:40:00 13.3 C 9.01 g/m*3 13.3 C 12.9 km/h
142 24-10-2020 11:45:00 13.3 C 9.01 g/m*3 13.3 C 16.1 km/h
143 24-10-2020 11:50:00 13.4 C 9.07 g/m*3 13.4 C 14.5 km/h
144 24-10-2020 11:55:00 13.6 C 9.18 g/m*3 13.6 C 14.5 km/h
145 24-10-2020 12:00:00 13.8 C 9.29 g/m*3 13.8 C 12.9 km/h
146 24-10-2020 12:05:00 13.9 C 9.23 g/m*3 13.9 C 14.5 km/h
147 24-10-2020 12:10:00 14.1 C 9.47 g/m*3 14.1 C 12.9 km/h
148 24-10-2020 12:15:00 14.2 C 9.4 g/m*3 14.2 C 9.7 km/h
149 24-10-2020 12:20:00 14.3 C 9.58 g/m*3 14.3 C 11.3 km/h
150 24-10-2020 12:25:00 14.4 C 9.52 g/m*3 14.4 C 16.1 km/h
Sensor: Nr:Datum:Temp:Abs-Feuchte:Windchill:Wind:
Aussen-T/F 151 24-10-2020 12:30:00 14.6 C 9.64 g/m*3 14.6 C 12.9 km/h
152 24-10-2020 12:35:00 14.6 C 9.51 g/m*3 14.6 C 8.1 km/h
153 24-10-2020 12:40:00 14.7 C 9.69 g/m*3 14.7 C 4.8 km/h
154 24-10-2020 12:45:00 14.8 C 9.5 g/m*3 14.8 C 4.8 km/h
155 24-10-2020 12:50:00 14.9 C 9.81 g/m*3 14.9 C 8.1 km/h
156 24-10-2020 12:55:00 15.1 C 9.8 g/m*3 15.1 C 4.8 km/h
157 24-10-2020 13:00:00 15.2 C 9.86 g/m*3 15.2 C 6.4 km/h
158 24-10-2020 13:05:00 15.2 C 9.73 g/m*3 15.2 C 4.8 km/h
159 24-10-2020 13:10:00 15.3 C 9.92 g/m*3 15.3 C 6.4 km/h
160 24-10-2020 13:15:00 15.3 C 9.92 g/m*3 15.3 C 6.4 km/h
161 24-10-2020 13:20:00 15.3 C 9.79 g/m*3 15.3 C 9.7 km/h
162 24-10-2020 13:25:00 15.3 C 9.79 g/m*3 15.3 C 9.7 km/h
163 24-10-2020 13:30:00 15.4 C 9.99 g/m*3 15.4 C 8.1 km/h
164 24-10-2020 13:35:00 15.3 C 9.79 g/m*3 15.3 C 9.7 km/h
165 24-10-2020 13:40:00 15.3 C 9.92 g/m*3 15.3 C 4.8 km/h
166 24-10-2020 13:45:00 15.3 C 9.92 g/m*3 15.3 C 9.7 km/h
167 24-10-2020 13:50:00 15.3 C 9.92 g/m*3 15.3 C 9.7 km/h
168 24-10-2020 13:55:00 15.2 C 9.86 g/m*3 15.2 C 9.7 km/h
169 24-10-2020 14:00:00 15.3 C 10.06 g/m*3 15.3 C 6.4 km/h
170 24-10-2020 14:05:00 15.2 C 9.99 g/m*3 15.2 C 6.4 km/h
171 24-10-2020 14:10:00 15.2 C 9.99 g/m*3 15.2 C 11.3 km/h
172 24-10-2020 14:15:00 15.2 C 9.86 g/m*3 15.2 C 12.9 km/h
173 24-10-2020 14:20:00 15.2 C 10.12 g/m*3 15.2 C 9.7 km/h
174 24-10-2020 14:25:00 15.2 C 9.86 g/m*3 15.2 C 11.3 km/h
175 24-10-2020 14:30:00 15.3 C 10.06 g/m*3 15.3 C 6.4 km/h
Sensor: Nr:Datum:Temp:Abs-Feuchte:Windchill:Wind:
Aussen-T/F 176 24-10-2020 14:35:00 15.3 C 9.92 g/m*3 15.3 C 4.8 km/h
177 24-10-2020 14:40:00 15.3 C 10.19 g/m*3 15.3 C 1.6 km/h
178 24-10-2020 14:45:00 15.4 C 10.25 g/m*3 15.4 C 4.8 km/h
179 24-10-2020 14:50:00 15.4 C 10.12 g/m*3 15.4 C 6.4 km/h
180 24-10-2020 14:55:00 15.4 C 9.99 g/m*3 15.4 C 4.8 km/h
181 24-10-2020 15:00:00 15.4 C 9.99 g/m*3 15.4 C 8.1 km/h
182 24-10-2020 15:05:00 15.4 C 9.99 g/m*3 15.4 C 6.4 km/h
183 24-10-2020 15:10:00 15.4 C 9.99 g/m*3 15.4 C 6.4 km/h
184 24-10-2020 15:15:00 15.4 C 10.12 g/m*3 15.4 C 4.8 km/h
185 24-10-2020 15:20:00 15.4 C 10.12 g/m*3 15.4 C 6.4 km/h
186 24-10-2020 15:25:00 15.4 C 10.12 g/m*3 15.4 C 12.9 km/h
187 24-10-2020 15:30:00 15.5 C 10.31 g/m*3 15.5 C 4.8 km/h
188 24-10-2020 15:35:00 15.5 C 10.18 g/m*3 15.5 C 4.8 km/h
189 24-10-2020 15:40:00 15.6 C 10.37 g/m*3 15.6 C 1.6 km/h
190 24-10-2020 15:45:00 15.6 C 10.24 g/m*3 15.6 C 6.4 km/h
191 24-10-2020 15:50:00 15.5 C 10.18 g/m*3 15.5 C 8.1 km/h
192 24-10-2020 15:55:00 15.4 C 10.25 g/m*3 15.4 C 8.1 km/h
193 24-10-2020 16:00:00 15.4 C 10.25 g/m*3 15.4 C 3.2 km/h
194 24-10-2020 16:05:00 15.4 C 10.25 g/m*3 15.4 C 6.4 km/h
195 24-10-2020 16:10:00 15.3 C 10.19 g/m*3 15.3 C 6.4 km/h
196 24-10-2020 16:15:00 15.3 C 10.19 g/m*3 15.3 C 8.1 km/h
197 24-10-2020 16:20:00 15.3 C 10.19 g/m*3 15.3 C 6.4 km/h
198 24-10-2020 16:25:00 15.3 C 10.32 g/m*3 15.3 C 3.2 km/h
199 24-10-2020 16:30:00 15.2 C 10.25 g/m*3 15.2 C 0 km/h
200 24-10-2020 16:35:00 15.2 C 10.25 g/m*3 15.2 C 0 km/h
Sensor: Nr:Datum:Temp:Abs-Feuchte:Windchill:Wind:
Aussen-T/F 201 24-10-2020 16:40:00 15.3 C 10.45 g/m*3 15.3 C 0 km/h
202 24-10-2020 16:45:00 15.2 C 10.25 g/m*3 15.2 C 4.8 km/h
203 24-10-2020 16:50:00 15.2 C 10.25 g/m*3 15.2 C 6.4 km/h
204 24-10-2020 16:55:00 15.2 C 10.25 g/m*3 15.2 C 4.8 km/h
205 24-10-2020 17:00:00 15.2 C 10.25 g/m*3 15.2 C 0 km/h
206 24-10-2020 17:05:00 15.2 C 10.38 g/m*3 15.2 C 4.8 km/h
207 24-10-2020 17:10:00 15.2 C 10.38 g/m*3 15.2 C 8.1 km/h
208 24-10-2020 17:15:00 15.1 C 10.32 g/m*3 15.1 C 6.4 km/h
209 24-10-2020 17:20:00 15.1 C 10.32 g/m*3 15.1 C 4.8 km/h
210 24-10-2020 17:25:00 15.1 C 10.32 g/m*3 15.1 C 3.2 km/h
211 24-10-2020 17:30:00 15.1 C 10.45 g/m*3 15.1 C 0 km/h
212 24-10-2020 17:35:00 15 C 10.39 g/m*3 15 C 0 km/h
213 24-10-2020 17:40:00 14.9 C 10.32 g/m*3 14.9 C 1.6 km/h
214 24-10-2020 17:45:00 14.8 C 10.26 g/m*3 14.8 C 1.6 km/h
215 24-10-2020 17:50:00 14.8 C 10.13 g/m*3 14.8 C 1.6 km/h
216 24-10-2020 17:55:00 14.8 C 10.26 g/m*3 14.8 C 3.2 km/h
217 24-10-2020 18:00:00 14.7 C 10.32 g/m*3 14.7 C 0 km/h
218 24-10-2020 18:05:00 14.7 C 10.2 g/m*3 14.7 C 4.8 km/h
219 24-10-2020 18:10:00 14.7 C 10.2 g/m*3 14.7 C 1.6 km/h
220 24-10-2020 18:15:00 14.7 C 10.2 g/m*3 14.7 C 4.8 km/h
221 24-10-2020 18:20:00 14.7 C 10.32 g/m*3 14.7 C 1.6 km/h
222 24-10-2020 18:25:00 14.7 C 10.2 g/m*3 14.7 C 3.2 km/h
223 24-10-2020 18:30:00 14.6 C 10.26 g/m*3 14.6 C 3.2 km/h
224 24-10-2020 18:35:00 14.6 C 10.39 g/m*3 14.6 C 1.6 km/h
225 24-10-2020 18:40:00 14.5 C 10.32 g/m*3 14.5 C 3.2 km/h
Sensor: Nr:Datum:Temp:Abs-Feuchte:Windchill:Wind:
Aussen-T/F 226 24-10-2020 18:45:00 14.4 C 10.26 g/m*3 14.4 C 1.6 km/h
227 24-10-2020 18:50:00 14.3 C 10.2 g/m*3 14.3 C 6.4 km/h
228 24-10-2020 18:55:00 14.3 C 10.32 g/m*3 14.3 C 4.8 km/h
229 24-10-2020 19:00:00 14.2 C 10.26 g/m*3 14.2 C 0 km/h
230 24-10-2020 19:05:00 14.2 C 10.26 g/m*3 14.2 C 6.4 km/h
231 24-10-2020 19:10:00 14.3 C 10.32 g/m*3 14.3 C 3.2 km/h
232 24-10-2020 19:15:00 14.3 C 10.32 g/m*3 14.3 C 0 km/h
233 24-10-2020 19:20:00 14.3 C 10.32 g/m*3 14.3 C 1.6 km/h
234 24-10-2020 19:25:00 14.3 C 10.32 g/m*3 14.3 C 8.1 km/h
235 24-10-2020 19:30:00 14.3 C 10.32 g/m*3 14.3 C 3.2 km/h
236 24-10-2020 19:35:00 14.3 C 10.32 g/m*3 14.3 C 4.8 km/h
237 24-10-2020 19:40:00 14.3 C 10.32 g/m*3 14.3 C 3.2 km/h
238 24-10-2020 19:45:00 14.3 C 10.44 g/m*3 14.3 C 0 km/h
239 24-10-2020 19:50:00 14.2 C 10.26 g/m*3 14.2 C 6.4 km/h
240 24-10-2020 19:55:00 14.2 C 10.26 g/m*3 14.2 C 1.6 km/h
241 24-10-2020 20:00:00 14.2 C 10.26 g/m*3 14.2 C 3.2 km/h
242 24-10-2020 20:05:00 14.2 C 10.26 g/m*3 14.2 C 4.8 km/h
243 24-10-2020 20:10:00 14.3 C 10.32 g/m*3 14.3 C 6.4 km/h
244 24-10-2020 20:15:00 14.3 C 10.32 g/m*3 14.3 C 1.6 km/h
245 24-10-2020 20:20:00 14.3 C 10.32 g/m*3 14.3 C 3.2 km/h
246 24-10-2020 20:25:00 14.3 C 10.32 g/m*3 14.3 C 4.8 km/h
247 24-10-2020 20:30:00 14.3 C 10.44 g/m*3 14.3 C 0 km/h
248 24-10-2020 20:35:00 14.3 C 10.44 g/m*3 14.3 C 9.7 km/h
249 24-10-2020 20:40:00 14.3 C 10.44 g/m*3 14.3 C 4.8 km/h
250 24-10-2020 20:45:00 14.3 C 10.44 g/m*3 14.3 C 9.7 km/h
Sensor: Nr:Datum:Temp:Abs-Feuchte:Windchill:Wind:
Aussen-T/F 251 24-10-2020 20:50:00 14.2 C 10.38 g/m*3 14.2 C 6.4 km/h
252 24-10-2020 20:55:00 14.2 C 10.38 g/m*3 14.2 C 6.4 km/h
253 24-10-2020 21:00:00 14.2 C 10.38 g/m*3 14.2 C 4.8 km/h
254 24-10-2020 21:05:00 14.2 C 10.5 g/m*3 14.2 C 3.2 km/h
255 24-10-2020 21:10:00 14.1 C 10.44 g/m*3 14.1 C 4.8 km/h
256 24-10-2020 21:15:00 14.1 C 10.44 g/m*3 14.1 C 3.2 km/h
257 24-10-2020 21:20:00 14.1 C 10.44 g/m*3 14.1 C 4.8 km/h
258 24-10-2020 21:25:00 14.1 C 10.44 g/m*3 14.1 C 1.6 km/h
259 24-10-2020 21:30:00 14.1 C 10.44 g/m*3 14.1 C 0 km/h
260 24-10-2020 21:35:00 14.1 C 10.44 g/m*3 14.1 C 0 km/h
261 24-10-2020 21:40:00 14.1 C 10.44 g/m*3 14.1 C 0 km/h
262 24-10-2020 21:45:00 14 C 10.37 g/m*3 14 C 1.6 km/h
263 24-10-2020 21:50:00 14.1 C 10.44 g/m*3 14.1 C 6.4 km/h
264 24-10-2020 21:55:00 14.1 C 10.44 g/m*3 14.1 C 6.4 km/h
265 24-10-2020 22:00:00 14.1 C 10.44 g/m*3 14.1 C 1.6 km/h
266 24-10-2020 22:05:00 14.1 C 10.44 g/m*3 14.1 C 1.6 km/h
267 24-10-2020 22:10:00 14.1 C 10.44 g/m*3 14.1 C 8.1 km/h
268 24-10-2020 22:15:00 14.1 C 10.56 g/m*3 14.1 C 4.8 km/h
269 24-10-2020 22:20:00 14 C 10.49 g/m*3 14 C 4.8 km/h
270 24-10-2020 22:25:00 14 C 10.49 g/m*3 14 C 0 km/h
271 24-10-2020 22:30:00 13.9 C 10.43 g/m*3 13.9 C 8.1 km/h
272 24-10-2020 22:35:00 13.8 C 10.37 g/m*3 13.8 C 1.6 km/h
273 24-10-2020 22:40:00 13.8 C 10.37 g/m*3 13.8 C 4.8 km/h
274 24-10-2020 22:45:00 13.8 C 10.37 g/m*3 13.8 C 1.6 km/h
275 24-10-2020 22:50:00 13.8 C 10.37 g/m*3 13.8 C 3.2 km/h
Sensor: Nr:Datum:Temp:Abs-Feuchte:Windchill:Wind:
Aussen-T/F 276 24-10-2020 22:55:00 13.8 C 10.37 g/m*3 13.8 C 4.8 km/h
277 24-10-2020 23:00:00 13.8 C 10.37 g/m*3 13.8 C 3.2 km/h
278 24-10-2020 23:05:00 13.8 C 10.37 g/m*3 13.8 C 0 km/h
279 24-10-2020 23:10:00 13.8 C 10.37 g/m*3 13.8 C 9.7 km/h
280 24-10-2020 23:15:00 13.9 C 10.43 g/m*3 13.9 C 6.4 km/h
281 24-10-2020 23:20:00 13.9 C 10.43 g/m*3 13.9 C 3.2 km/h
282 24-10-2020 23:25:00 13.9 C 10.43 g/m*3 13.9 C 6.4 km/h
283 24-10-2020 23:30:00 13.9 C 10.43 g/m*3 13.9 C 3.2 km/h
284 24-10-2020 23:35:00 13.9 C 10.43 g/m*3 13.9 C 1.6 km/h
285 24-10-2020 23:40:00 13.9 C 10.31 g/m*3 13.9 C 8.1 km/h
286 24-10-2020 23:45:00 14 C 10.37 g/m*3 14 C 0 km/h
287 24-10-2020 23:50:00 14 C 10.37 g/m*3 14 C 1.6 km/h
288 24-10-2020 23:55:00 14.1 C 10.44 g/m*3 14.1 C 3.2 km/h
289 25-10-2020 00:00:00 14.1 C 10.44 g/m*3 14.1 C 1.6 km/h
290 25-10-2020 00:05:00 14.1 C 10.44 g/m*3 14.1 C 4.8 km/h
291 25-10-2020 00:10:00 14.1 C 10.44 g/m*3 14.1 C 9.7 km/h
292 25-10-2020 00:15:00 14.1 C 10.32 g/m*3 14.1 C 6.4 km/h
293 25-10-2020 00:20:00 14.2 C 10.38 g/m*3 14.2 C 3.2 km/h
294 25-10-2020 00:25:00 14.2 C 10.38 g/m*3 14.2 C 1.6 km/h
295 25-10-2020 00:30:00 14.2 C 10.38 g/m*3 14.2 C 4.8 km/h
296 25-10-2020 00:35:00 14.3 C 10.44 g/m*3 14.3 C 4.8 km/h
297 25-10-2020 00:40:00 14.3 C 10.44 g/m*3 14.3 C 6.4 km/h
298 25-10-2020 00:45:00 14.2 C 10.38 g/m*3 14.2 C 3.2 km/h
299 25-10-2020 00:50:00 14.2 C 10.38 g/m*3 14.2 C 6.4 km/h
300 25-10-2020 00:55:00 14.2 C 10.38 g/m*3 14.2 C 1.6 km/h
Sensor: Nr:Datum:Temp:Abs-Feuchte:Windchill:Wind:
Aussen-T/F 301 25-10-2020 01:00:00 14.2 C 10.38 g/m*3 14.2 C 3.2 km/h
302 25-10-2020 01:05:00 14.2 C 10.38 g/m*3 14.2 C 0 km/h
303 25-10-2020 01:10:00 14.3 C 10.44 g/m*3 14.3 C 3.2 km/h
304 25-10-2020 01:15:00 14.3 C 10.32 g/m*3 14.3 C 6.4 km/h
305 25-10-2020 01:20:00 14.3 C 10.32 g/m*3 14.3 C 0 km/h
306 25-10-2020 01:25:00 14.3 C 10.44 g/m*3 14.3 C 0 km/h
307 25-10-2020 01:30:00 14.3 C 10.32 g/m*3 14.3 C 0 km/h
308 25-10-2020 01:35:00 14.3 C 10.32 g/m*3 14.3 C 1.6 km/h
309 25-10-2020 01:40:00 14.3 C 10.32 g/m*3 14.3 C 3.2 km/h
310 25-10-2020 01:45:00 14.3 C 10.32 g/m*3 14.3 C 1.6 km/h
311 25-10-2020 01:50:00 14.4 C 10.26 g/m*3 14.4 C 4.8 km/h
312 25-10-2020 01:55:00 14.4 C 10.26 g/m*3 14.4 C 6.4 km/h
313 25-10-2020 02:00:00 14.5 C 10.32 g/m*3 14.5 C 4.8 km/h
314 25-10-2020 02:05:00 14.6 C 10.39 g/m*3 14.6 C 4.8 km/h
315 25-10-2020 02:10:00 14.6 C 10.26 g/m*3 14.6 C 9.7 km/h
316 25-10-2020 02:15:00 14.6 C 10.26 g/m*3 14.6 C 3.2 km/h
317 25-10-2020 02:20:00 14.6 C 10.14 g/m*3 14.6 C 1.6 km/h
318 25-10-2020 02:25:00 14.6 C 10.14 g/m*3 14.6 C 3.2 km/h
319 25-10-2020 02:30:00 14.5 C 10.2 g/m*3 14.5 C 3.2 km/h
320 25-10-2020 02:35:00 14.4 C 10.14 g/m*3 14.4 C 3.2 km/h
321 25-10-2020 02:40:00 14.3 C 10.07 g/m*3 14.3 C 8.1 km/h
322 25-10-2020 02:45:00 14.2 C 10.01 g/m*3 14.2 C 3.2 km/h
323 25-10-2020 02:50:00 14.2 C 10.01 g/m*3 14.2 C 4.8 km/h
324 25-10-2020 02:55:00 14.1 C 10.07 g/m*3 14.1 C 0 km/h
325 25-10-2020 04:00:00 14 C 10.01 g/m*3 14 C 1.6 km/h
Sensor: Nr:Datum:Temp:Abs-Feuchte:Windchill:Wind:
Aussen-T/F 326 25-10-2020 04:05:00 13.3 C 9.7 g/m*3 13.3 C 3.2 km/h
327 25-10-2020 04:05:00 13.7 C 9.83 g/m*3 13.7 C 9.7 km/h
328 25-10-2020 04:10:00 13.7 C 9.83 g/m*3 13.7 C 8.1 km/h
329 25-10-2020 04:10:00 13.3 C 9.59 g/m*3 13.3 C 11.3 km/h
330 25-10-2020 04:15:00 13.7 C 9.83 g/m*3 13.7 C 1.6 km/h
331 25-10-2020 04:15:00 13.3 C 9.59 g/m*3 13.3 C 3.2 km/h
332 25-10-2020 04:20:00 13.6 C 9.77 g/m*3 13.6 C 6.4 km/h
333 25-10-2020 04:20:00 13.3 C 9.59 g/m*3 13.3 C 3.2 km/h
334 25-10-2020 04:25:00 13.6 C 9.77 g/m*3 13.6 C 4.8 km/h
335 25-10-2020 04:25:00 13.2 C 9.64 g/m*3 13.2 C 0 km/h
336 25-10-2020 04:30:00 13.2 C 9.64 g/m*3 13.2 C 0 km/h
337 25-10-2020 04:30:00 13.6 C 9.77 g/m*3 13.6 C 1.6 km/h
338 25-10-2020 04:35:00 13.2 C 9.53 g/m*3 13.2 C 8.1 km/h
339 25-10-2020 04:35:00 13.6 C 9.77 g/m*3 13.6 C 1.6 km/h
340 25-10-2020 04:40:00 13.2 C 9.53 g/m*3 13.2 C 8.1 km/h
341 25-10-2020 04:40:00 13.5 C 9.71 g/m*3 13.5 C 4.8 km/h
342 25-10-2020 04:45:00 13.2 C 9.53 g/m*3 13.2 C 3.2 km/h
343 25-10-2020 04:45:00 13.5 C 9.71 g/m*3 13.5 C 6.4 km/h
344 25-10-2020 04:50:00 13.4 C 9.76 g/m*3 13.4 C 0 km/h
345 25-10-2020 04:50:00 13.1 C 9.47 g/m*3 13.1 C 0 km/h
346 25-10-2020 04:55:00 13.4 C 9.65 g/m*3 13.4 C 4.8 km/h
347 25-10-2020 04:55:00 13.1 C 9.47 g/m*3 13.1 C 4.8 km/h
348 25-10-2020 05:00:00 13.3 C 9.7 g/m*3 13.3 C 4.8 km/h
349 25-10-2020 05:00:00 13.1 C 9.47 g/m*3 13.1 C 4.8 km/h
350 25-10-2020 05:05:00 13.1 C 9.59 g/m*3 13.1 C 0 km/h
Sensor: Nr:Datum:Temp:Abs-Feuchte:Windchill:Wind:
Aussen-T/F 351 25-10-2020 05:10:00 13 C 9.53 g/m*3 13 C 3.2 km/h
352 25-10-2020 05:15:00 12.9 C 9.47 g/m*3 12.9 C 0 km/h
353 25-10-2020 05:20:00 12.8 C 9.41 g/m*3 12.8 C 3.2 km/h
354 25-10-2020 05:25:00 12.8 C 9.41 g/m*3 12.8 C 3.2 km/h
355 25-10-2020 05:30:00 12.7 C 9.46 g/m*3 12.7 C 0 km/h
356 25-10-2020 05:35:00 12.7 C 9.46 g/m*3 12.7 C 1.6 km/h
357 25-10-2020 05:40:00 12.7 C 9.46 g/m*3 12.7 C 1.6 km/h
358 25-10-2020 05:45:00 12.6 C 9.4 g/m*3 12.6 C 0 km/h
359 25-10-2020 05:50:00 12.6 C 9.4 g/m*3 12.6 C 1.6 km/h
360 25-10-2020 05:55:00 12.5 C 9.35 g/m*3 12.5 C 3.2 km/h
361 25-10-2020 06:00:00 12.4 C 9.4 g/m*3 12.4 C 1.6 km/h
362 25-10-2020 06:05:00 12.3 C 9.34 g/m*3 12.3 C 0 km/h
363 25-10-2020 06:10:00 12.2 C 9.28 g/m*3 12.2 C 0 km/h
364 25-10-2020 06:15:00 12.1 C 9.22 g/m*3 12.1 C 0 km/h
365 25-10-2020 06:20:00 11.9 C 9.21 g/m*3 11.9 C 0 km/h
366 25-10-2020 06:25:00 11.8 C 9.16 g/m*3 11.8 C 0 km/h
367 25-10-2020 06:30:00 11.8 C 9.26 g/m*3 11.8 C 0 km/h
368 25-10-2020 06:35:00 11.8 C 9.26 g/m*3 11.8 C 3.2 km/h
369 25-10-2020 06:40:00 11.7 C 9.2 g/m*3 11.7 C 1.6 km/h
370 25-10-2020 06:45:00 11.7 C 9.2 g/m*3 11.7 C 0 km/h
371 25-10-2020 06:50:00 11.6 C 9.15 g/m*3 11.6 C 1.6 km/h
372 25-10-2020 06:55:00 11.5 C 9.19 g/m*3 11.5 C 0 km/h
373 25-10-2020 07:00:00 11.4 C 9.14 g/m*3 11.4 C 0 km/h
374 25-10-2020 07:05:00 11.4 C 9.24 g/m*3 11.4 C 0 km/h
375 25-10-2020 07:10:00 11.4 C 9.24 g/m*3 11.4 C 0 km/h
Sensor: Nr:Datum:Temp:Abs-Feuchte:Windchill:Wind:
Aussen-T/F 376 25-10-2020 07:15:00 11.4 C 9.24 g/m*3 11.4 C 0 km/h
377 25-10-2020 07:20:00 11.5 C 9.3 g/m*3 11.5 C 0 km/h
378 25-10-2020 07:25:00 11.6 C 9.35 g/m*3 11.6 C 8.1 km/h
379 25-10-2020 07:30:00 11.7 C 9.31 g/m*3 11.7 C 6.4 km/h
380 25-10-2020 07:35:00 11.8 C 9.26 g/m*3 11.8 C 4.8 km/h
381 25-10-2020 07:40:00 12.1 C 9.33 g/m*3 12.1 C 3.2 km/h
382 25-10-2020 07:45:00 12.2 C 9.39 g/m*3 12.2 C 1.6 km/h
383 25-10-2020 07:50:00 12.3 C 9.34 g/m*3 12.3 C 6.4 km/h
384 25-10-2020 07:55:00 12.4 C 9.29 g/m*3 12.4 C 3.2 km/h
385 25-10-2020 08:00:00 12.6 C 9.4 g/m*3 12.6 C 0 km/h
386 25-10-2020 08:05:00 12.7 C 9.35 g/m*3 12.7 C 1.6 km/h
387 25-10-2020 08:10:00 12.8 C 9.41 g/m*3 12.8 C 4.8 km/h
388 25-10-2020 08:15:00 12.9 C 9.47 g/m*3 12.9 C 1.6 km/h
389 25-10-2020 08:20:00 12.9 C 9.47 g/m*3 12.9 C 3.2 km/h
390 25-10-2020 08:25:00 13 C 9.3 g/m*3 13 C 4.8 km/h
391 25-10-2020 08:30:00 13.1 C 9.36 g/m*3 13.1 C 4.8 km/h
392 25-10-2020 08:35:00 13.2 C 9.42 g/m*3 13.2 C 3.2 km/h
393 25-10-2020 08:40:00 13.3 C 9.47 g/m*3 13.3 C 1.6 km/h
394 25-10-2020 08:45:00 13.3 C 9.47 g/m*3 13.3 C 3.2 km/h
395 25-10-2020 08:50:00 13.4 C 9.53 g/m*3 13.4 C 1.6 km/h
396 25-10-2020 08:55:00 13.4 C 9.53 g/m*3 13.4 C 1.6 km/h
397 25-10-2020 09:00:00 13.5 C 9.71 g/m*3 13.5 C 0 km/h
398 25-10-2020 09:05:00 13.5 C 9.59 g/m*3 13.5 C 3.2 km/h
399 25-10-2020 09:10:00 13.6 C 9.53 g/m*3 13.6 C 1.6 km/h
400 25-10-2020 09:15:00 13.6 C 9.65 g/m*3 13.6 C 0 km/h
Sensor: Nr:Datum:Temp:Abs-Feuchte:Windchill:Wind:
Aussen-T/F 401 25-10-2020 09:20:00 13.7 C 9.47 g/m*3 13.7 C 4.8 km/h
402 25-10-2020 09:25:00 13.7 C 9.59 g/m*3 13.7 C 1.6 km/h
403 25-10-2020 09:30:00 13.8 C 9.65 g/m*3 13.8 C 4.8 km/h
404 25-10-2020 09:35:00 13.8 C 9.53 g/m*3 13.8 C 3.2 km/h
405 25-10-2020 09:40:00 13.9 C 9.59 g/m*3 13.9 C 0 km/h
406 25-10-2020 09:45:00 14 C 9.65 g/m*3 14 C 1.6 km/h
407 25-10-2020 09:50:00 14.1 C 9.71 g/m*3 14.1 C 6.4 km/h
408 25-10-2020 09:55:00 14.1 C 9.59 g/m*3 14.1 C 4.8 km/h
409 25-10-2020 10:00:00 14.2 C 9.65 g/m*3 14.2 C 4.8 km/h
410 25-10-2020 10:05:00 14.3 C 9.58 g/m*3 14.3 C 4.8 km/h
411 25-10-2020 10:10:00 14.3 C 9.46 g/m*3 14.3 C 4.8 km/h
412 25-10-2020 10:15:00 14.4 C 9.52 g/m*3 14.4 C 4.8 km/h
413 25-10-2020 10:20:00 14.5 C 9.7 g/m*3 14.5 C 6.4 km/h
414 25-10-2020 10:25:00 14.6 C 9.76 g/m*3 14.6 C 3.2 km/h
415 25-10-2020 10:30:00 14.6 C 9.76 g/m*3 14.6 C 3.2 km/h
416 25-10-2020 10:35:00 14.7 C 9.69 g/m*3 14.7 C 3.2 km/h
417 25-10-2020 10:40:00 14.8 C 9.88 g/m*3 14.8 C 1.6 km/h
418 25-10-2020 10:45:00 14.9 C 9.81 g/m*3 14.9 C 6.4 km/h
419 25-10-2020 10:50:00 14.9 C 9.69 g/m*3 14.9 C 3.2 km/h
420 25-10-2020 10:55:00 15 C 9.75 g/m*3 15 C 3.2 km/h
421 25-10-2020 11:00:00 15 C 9.75 g/m*3 15 C 1.6 km/h
422 25-10-2020 11:05:00 15.1 C 9.93 g/m*3 15.1 C 1.6 km/h
423 25-10-2020 11:10:00 15.2 C 9.86 g/m*3 15.2 C 0 km/h
424 25-10-2020 11:15:00 15.2 C 9.86 g/m*3 15.2 C 4.8 km/h
425 25-10-2020 11:20:00 15.3 C 9.92 g/m*3 15.3 C 4.8 km/h
Sensor: Nr:Datum:Temp:Abs-Feuchte:Windchill:Wind:
Aussen-T/F 426 25-10-2020 11:25:00 15.3 C 9.79 g/m*3 15.3 C 4.8 km/h
427 25-10-2020 11:30:00 15.3 C 9.92 g/m*3 15.3 C 4.8 km/h
428 25-10-2020 11:35:00 15.3 C 9.79 g/m*3 15.3 C 3.2 km/h
429 25-10-2020 11:40:00 15.3 C 9.79 g/m*3 15.3 C 3.2 km/h
430 25-10-2020 11:45:00 15.4 C 9.85 g/m*3 15.4 C 11.3 km/h
431 25-10-2020 11:50:00 15.4 C 9.72 g/m*3 15.4 C 4.8 km/h
432 25-10-2020 11:55:00 15.5 C 9.91 g/m*3 15.5 C 4.8 km/h
433 25-10-2020 12:00:00 15.6 C 9.97 g/m*3 15.6 C 6.4 km/h
434 25-10-2020 12:05:00 15.6 C 9.97 g/m*3 15.6 C 1.6 km/h
435 25-10-2020 12:10:00 15.6 C 9.97 g/m*3 15.6 C 1.6 km/h
436 25-10-2020 12:15:00 15.6 C 9.97 g/m*3 15.6 C 1.6 km/h
437 25-10-2020 12:20:00 15.6 C 9.97 g/m*3 15.6 C 3.2 km/h
438 25-10-2020 12:25:00 15.6 C 9.97 g/m*3 15.6 C 0 km/h
439 25-10-2020 12:30:00 15.6 C 9.97 g/m*3 15.6 C 6.4 km/h
440 25-10-2020 12:35:00 15.6 C 9.97 g/m*3 15.6 C 4.8 km/h
441 25-10-2020 12:40:00 15.6 C 10.37 g/m*3 15.6 C 4.8 km/h
442 25-10-2020 12:45:00 15.5 C 10.31 g/m*3 15.5 C 3.2 km/h
443 25-10-2020 12:50:00 15.4 C 10.25 g/m*3 15.4 C 1.6 km/h
444 25-10-2020 12:55:00 15.4 C 10.51 g/m*3 15.4 C 1.6 km/h
445 25-10-2020 13:00:00 15.3 C 10.19 g/m*3 15.3 C 6.4 km/h
446 25-10-2020 13:05:00 15.3 C 10.19 g/m*3 15.3 C 4.8 km/h
447 25-10-2020 13:10:00 15.4 C 10.12 g/m*3 15.4 C 4.8 km/h
448 25-10-2020 13:15:00 15.6 C 10.37 g/m*3 15.6 C 4.8 km/h
449 25-10-2020 13:20:00 15.8 C 10.36 g/m*3 15.8 C 8.1 km/h
450 25-10-2020 13:25:00 16 C 10.35 g/m*3 16 C 12.9 km/h
Sensor: Nr:Datum:Temp:Abs-Feuchte:Windchill:Wind:
Aussen-T/F 451 25-10-2020 13:30:00 16.2 C 10.34 g/m*3 16.2 C 12.9 km/h
452 25-10-2020 13:35:00 16.3 C 10.54 g/m*3 16.3 C 1.6 km/h
453 25-10-2020 13:40:00 16.3 C 10.41 g/m*3 16.3 C 0 km/h
454 25-10-2020 13:45:00 16.4 C 10.33 g/m*3 16.4 C 1.6 km/h
455 25-10-2020 13:50:00 16.4 C 10.33 g/m*3 16.4 C 3.2 km/h
456 25-10-2020 13:55:00 16.4 C 10.33 g/m*3 16.4 C 4.8 km/h
457 25-10-2020 14:00:00 16.3 C 10.27 g/m*3 16.3 C 11.3 km/h
458 25-10-2020 14:05:00 16.3 C 10.27 g/m*3 16.3 C 8.1 km/h
459 25-10-2020 14:10:00 16.2 C 10.34 g/m*3 16.2 C 3.2 km/h
460 25-10-2020 14:15:00 16.1 C 10.42 g/m*3 16.1 C 1.6 km/h
461 25-10-2020 14:20:00 15.9 C 10.56 g/m*3 15.9 C 4.8 km/h
462 25-10-2020 14:25:00 15.8 C 10.36 g/m*3 15.8 C 0 km/h
463 25-10-2020 14:30:00 15.7 C 10.7 g/m*3 15.7 C 0 km/h
464 25-10-2020 14:35:00 15.7 C 10.97 g/m*3 15.7 C 1.6 km/h
465 25-10-2020 14:40:00 15.4 C 10.77 g/m*3 15.4 C 4.8 km/h
466 25-10-2020 14:45:00 15.2 C 10.9 g/m*3 15.2 C 1.6 km/h
467 25-10-2020 14:50:00 15 C 10.9 g/m*3 15 C 1.6 km/h
468 25-10-2020 14:55:00 14.8 C 10.89 g/m*3 14.8 C 3.2 km/h
469 25-10-2020 15:00:00 14.6 C 10.89 g/m*3 14.6 C 3.2 km/h
470 25-10-2020 15:05:00 14.4 C 10.88 g/m*3 14.4 C 0 km/h
471 25-10-2020 15:10:00 14.3 C 10.81 g/m*3 14.3 C 0 km/h
472 25-10-2020 15:15:00 14.2 C 10.87 g/m*3 14.2 C 0 km/h
473 25-10-2020 15:20:00 14.1 C 10.8 g/m*3 14.1 C 0 km/h
474 25-10-2020 15:25:00 14 C 10.86 g/m*3 14 C 1.6 km/h
475 25-10-2020 15:30:00 13.9 C 10.79 g/m*3 13.9 C 0 km/h
Sensor: Nr:Datum:Temp:Abs-Feuchte:Windchill:Wind:
Aussen-T/F 476 25-10-2020 15:35:00 13.8 C 10.72 g/m*3 13.8 C 0 km/h
477 25-10-2020 15:40:00 13.8 C 10.84 g/m*3 13.8 C 0 km/h
478 25-10-2020 15:45:00 13.8 C 10.84 g/m*3 13.8 C 0 km/h
479 25-10-2020 15:50:00 13.7 C 10.89 g/m*3 13.7 C 0 km/h
480 25-10-2020 15:55:00 13.7 C 10.89 g/m*3 13.7 C 0 km/h
481 25-10-2020 16:00:00 13.7 C 10.89 g/m*3 13.7 C 0 km/h
482 25-10-2020 16:05:00 13.6 C 10.83 g/m*3 13.6 C 0 km/h
483 25-10-2020 16:10:00 13.6 C 10.83 g/m*3 13.6 C 1.6 km/h
484 25-10-2020 16:15:00 13.4 C 10.69 g/m*3 13.4 C 0 km/h
485 25-10-2020 16:20:00 13.4 C 10.69 g/m*3 13.4 C 4.8 km/h
486 25-10-2020 16:25:00 13.3 C 10.63 g/m*3 13.3 C 1.6 km/h
487 25-10-2020 16:30:00 13.2 C 10.68 g/m*3 13.2 C 3.2 km/h
488 25-10-2020 16:35:00 13.2 C 10.68 g/m*3 13.2 C 0 km/h
489 25-10-2020 16:40:00 13.1 C 10.61 g/m*3 13.1 C 1.6 km/h
490 25-10-2020 16:45:00 13 C 10.55 g/m*3 13 C 0 km/h
491 25-10-2020 16:50:00 12.9 C 10.48 g/m*3 12.9 C 1.6 km/h
492 25-10-2020 16:55:00 12.9 C 10.48 g/m*3 12.9 C 0 km/h
493 25-10-2020 17:00:00 12.8 C 10.42 g/m*3 12.8 C 4.8 km/h
494 25-10-2020 17:05:00 12.7 C 10.35 g/m*3 12.7 C 0 km/h
495 25-10-2020 17:10:00 12.7 C 10.46 g/m*3 12.7 C 1.6 km/h
496 25-10-2020 17:15:00 12.6 C 10.4 g/m*3 12.6 C 0 km/h
497 25-10-2020 17:20:00 12.5 C 10.22 g/m*3 12.5 C 3.2 km/h
498 25-10-2020 17:25:00 12.4 C 10.16 g/m*3 12.4 C 3.2 km/h
499 25-10-2020 17:30:00 12.3 C 10.1 g/m*3 12.3 C 4.8 km/h
500 25-10-2020 17:35:00 12.3 C 10.21 g/m*3 12.3 C 4.8 km/h
Sensor: Nr:Datum:Temp:Abs-Feuchte:Windchill:Wind:
Aussen-T/F 501 25-10-2020 17:40:00 12.2 C 10.14 g/m*3 12.2 C 1.6 km/h
502 25-10-2020 17:45:00 12.2 C 10.14 g/m*3 12.2 C 4.8 km/h
503 25-10-2020 17:50:00 12.1 C 9.97 g/m*3 12.1 C 1.6 km/h
504 25-10-2020 17:55:00 12.1 C 9.97 g/m*3 12.1 C 3.2 km/h
505 25-10-2020 18:00:00 12 C 10.02 g/m*3 12 C 3.2 km/h
506 25-10-2020 18:05:00 11.9 C 9.96 g/m*3 11.9 C 3.2 km/h
507 25-10-2020 18:10:00 11.9 C 9.96 g/m*3 11.9 C 0 km/h
508 25-10-2020 18:15:00 11.8 C 9.89 g/m*3 11.8 C 0 km/h
509 25-10-2020 18:20:00 11.8 C 9.89 g/m*3 11.8 C 3.2 km/h
510 25-10-2020 18:25:00 11.7 C 9.83 g/m*3 11.7 C 3.2 km/h
511 25-10-2020 18:30:00 11.7 C 9.83 g/m*3 11.7 C 8.1 km/h
512 25-10-2020 18:35:00 11.7 C 9.83 g/m*3 11.7 C 3.2 km/h
513 25-10-2020 18:40:00 11.6 C 9.77 g/m*3 11.6 C 1.6 km/h
514 25-10-2020 18:45:00 11.6 C 9.77 g/m*3 11.6 C 4.8 km/h
515 25-10-2020 18:50:00 11.5 C 9.71 g/m*3 11.5 C 4.8 km/h
516 25-10-2020 18:55:00 11.5 C 9.71 g/m*3 11.5 C 1.6 km/h
517 25-10-2020 19:00:00 11.4 C 9.65 g/m*3 11.4 C 9.7 km/h
518 25-10-2020 19:05:00 11.4 C 9.65 g/m*3 11.4 C 8.1 km/h
519 25-10-2020 19:10:00 11.4 C 9.65 g/m*3 11.4 C 3.2 km/h
520 25-10-2020 19:15:00 11.4 C 9.65 g/m*3 11.4 C 3.2 km/h
521 25-10-2020 19:20:00 11.4 C 9.65 g/m*3 11.4 C 3.2 km/h
522 25-10-2020 19:25:00 11.3 C 9.59 g/m*3 11.3 C 3.2 km/h
523 25-10-2020 19:30:00 11.3 C 9.59 g/m*3 11.3 C 0 km/h
524 25-10-2020 19:35:00 11.3 C 9.59 g/m*3 11.3 C 1.6 km/h
525 25-10-2020 19:40:00 11.2 C 9.53 g/m*3 11.2 C 8.1 km/h
Sensor: Nr:Datum:Temp:Abs-Feuchte:Windchill:Wind:
Aussen-T/F 526 25-10-2020 19:45:00 11.2 C 9.53 g/m*3 11.2 C 0 km/h
527 25-10-2020 19:50:00 11.2 C 9.53 g/m*3 11.2 C 0 km/h
528 25-10-2020 19:55:00 11.2 C 9.53 g/m*3 11.2 C 0 km/h
529 25-10-2020 20:00:00 11.2 C 9.53 g/m*3 11.2 C 0 km/h
530 25-10-2020 20:05:00 11.2 C 9.53 g/m*3 11.2 C 3.2 km/h
531 25-10-2020 20:10:00 11.1 C 9.47 g/m*3 11.1 C 3.2 km/h
532 25-10-2020 20:15:00 11.1 C 9.57 g/m*3 11.1 C 0 km/h
533 25-10-2020 20:20:00 11.1 C 9.57 g/m*3 11.1 C 4.8 km/h
534 25-10-2020 20:25:00 11.1 C 9.57 g/m*3 11.1 C 4.8 km/h
535 25-10-2020 20:30:00 11 C 9.51 g/m*3 11 C 3.2 km/h
536 25-10-2020 20:35:00 11 C 9.51 g/m*3 11 C 0 km/h
537 25-10-2020 20:40:00 10.9 C 9.45 g/m*3 10.9 C 3.2 km/h
538 25-10-2020 20:45:00 10.9 C 9.45 g/m*3 10.9 C 1.6 km/h
539 25-10-2020 20:50:00 10.9 C 9.45 g/m*3 10.9 C 3.2 km/h
540 25-10-2020 20:55:00 10.9 C 9.45 g/m*3 10.9 C 4.8 km/h
541 25-10-2020 21:00:00 10.9 C 9.45 g/m*3 10.9 C 3.2 km/h
542 25-10-2020 21:05:00 10.8 C 9.39 g/m*3 10.8 C 3.2 km/h
543 25-10-2020 21:10:00 10.8 C 9.39 g/m*3 10.8 C 1.6 km/h
544 25-10-2020 21:15:00 10.8 C 9.39 g/m*3 10.8 C 0 km/h
545 25-10-2020 21:20:00 10.8 C 9.39 g/m*3 10.8 C 0 km/h
546 25-10-2020 21:25:00 10.8 C 9.39 g/m*3 10.8 C 0 km/h
547 25-10-2020 21:30:00 10.8 C 9.39 g/m*3 10.8 C 0 km/h
548 25-10-2020 21:35:00 10.7 C 9.33 g/m*3 10.7 C 0 km/h
549 25-10-2020 21:40:00 10.7 C 9.33 g/m*3 10.7 C 0 km/h
550 25-10-2020 21:45:00 10.7 C 9.33 g/m*3 10.7 C 1.6 km/h
Sensor: Nr:Datum:Temp:Abs-Feuchte:Windchill:Wind:
Aussen-T/F 551 25-10-2020 21:50:00 10.7 C 9.33 g/m*3 10.7 C 1.6 km/h
552 25-10-2020 21:55:00 10.7 C 9.33 g/m*3 10.7 C 0 km/h
553 25-10-2020 22:00:00 10.7 C 9.33 g/m*3 10.7 C 0 km/h
554 25-10-2020 22:05:00 10.7 C 9.33 g/m*3 10.7 C 0 km/h
555 25-10-2020 22:10:00 10.7 C 9.33 g/m*3 10.7 C 0 km/h
556 25-10-2020 22:15:00 10.6 C 9.27 g/m*3 10.6 C 0 km/h
557 25-10-2020 22:20:00 10.6 C 9.27 g/m*3 10.6 C 0 km/h
558 25-10-2020 22:25:00 10.6 C 9.27 g/m*3 10.6 C 0 km/h
559 25-10-2020 22:30:00 10.5 C 9.21 g/m*3 10.5 C 0 km/h
560 25-10-2020 22:35:00 10.6 C 9.37 g/m*3 10.6 C 0 km/h
561 25-10-2020 22:40:00 10.6 C 9.37 g/m*3 10.6 C 0 km/h
562 25-10-2020 22:45:00 10.6 C 9.37 g/m*3 10.6 C 1.6 km/h
563 25-10-2020 22:50:00 10.6 C 9.37 g/m*3 10.6 C 1.6 km/h
564 25-10-2020 22:55:00 10.6 C 9.37 g/m*3 10.6 C 3.2 km/h
565 25-10-2020 23:00:00 10.6 C 9.37 g/m*3 10.6 C 1.6 km/h
566 25-10-2020 23:05:00 10.6 C 9.37 g/m*3 10.6 C 0 km/h
567 25-10-2020 23:10:00 10.6 C 9.37 g/m*3 10.6 C 0 km/h
568 25-10-2020 23:15:00 10.7 C 9.43 g/m*3 10.7 C 0 km/h
569 25-10-2020 23:20:00 10.7 C 9.43 g/m*3 10.7 C 0 km/h
570 25-10-2020 23:25:00 10.7 C 9.43 g/m*3 10.7 C 1.6 km/h
571 25-10-2020 23:30:00 10.7 C 9.43 g/m*3 10.7 C 0 km/h
572 25-10-2020 23:35:00 10.7 C 9.43 g/m*3 10.7 C 1.6 km/h
573 25-10-2020 23:40:00 10.7 C 9.43 g/m*3 10.7 C 0 km/h
574 25-10-2020 23:45:00 10.7 C 9.43 g/m*3 10.7 C 0 km/h
575 25-10-2020 23:50:00 10.7 C 9.43 g/m*3 10.7 C 0 km/h
Sensor: Nr:Datum:Temp:Abs-Feuchte:Windchill:Wind:
Aussen-T/F 576 25-10-2020 23:55:00 10.7 C 9.43 g/m*3 10.7 C 0 km/h
577 26-10-2020 00:00:00 10.7 C 9.43 g/m*3 10.7 C 0 km/h
578 26-10-2020 00:05:00 10.7 C 9.43 g/m*3 10.7 C 1.6 km/h
579 26-10-2020 00:10:00 10.7 C 9.43 g/m*3 10.7 C 0 km/h
580 26-10-2020 00:15:00 10.7 C 9.43 g/m*3 10.7 C 0 km/h
581 26-10-2020 00:20:00 10.7 C 9.43 g/m*3 10.7 C 0 km/h
582 26-10-2020 00:25:00 10.7 C 9.43 g/m*3 10.7 C 1.6 km/h
583 26-10-2020 00:30:00 10.7 C 9.43 g/m*3 10.7 C 0 km/h
584 26-10-2020 00:35:00 10.7 C 9.43 g/m*3 10.7 C 0 km/h
585 26-10-2020 00:40:00 10.7 C 9.43 g/m*3 10.7 C 0 km/h
586 26-10-2020 00:45:00 10.7 C 9.43 g/m*3 10.7 C 4.8 km/h
587 26-10-2020 00:50:00 10.7 C 9.43 g/m*3 10.7 C 4.8 km/h
588 26-10-2020 00:55:00 10.7 C 9.43 g/m*3 10.7 C 1.6 km/h
589 26-10-2020 01:00:00 10.7 C 9.43 g/m*3 10.7 C 0 km/h
590 26-10-2020 01:05:00 10.7 C 9.43 g/m*3 10.7 C 0 km/h
591 26-10-2020 01:10:00 10.7 C 9.43 g/m*3 10.7 C 0 km/h
592 26-10-2020 01:15:00 10.7 C 9.43 g/m*3 10.7 C 0 km/h
593 26-10-2020 01:20:00 10.7 C 9.43 g/m*3 10.7 C 0 km/h
594 26-10-2020 01:25:00 10.7 C 9.43 g/m*3 10.7 C 0 km/h
595 26-10-2020 01:30:00 10.7 C 9.43 g/m*3 10.7 C 0 km/h
596 26-10-2020 01:35:00 10.7 C 9.43 g/m*3 10.7 C 1.6 km/h
597 26-10-2020 01:40:00 10.6 C 9.37 g/m*3 10.6 C 0 km/h
598 26-10-2020 01:45:00 10.6 C 9.37 g/m*3 10.6 C 0 km/h
599 26-10-2020 01:50:00 10.6 C 9.37 g/m*3 10.6 C 0 km/h
600 26-10-2020 01:55:00 10.6 C 9.37 g/m*3 10.6 C 1.6 km/h
Sensor: Nr:Datum:Temp:Abs-Feuchte:Windchill:Wind:
Aussen-T/F 601 26-10-2020 02:00:00 10.6 C 9.37 g/m*3 10.6 C 0 km/h
602 26-10-2020 02:05:00 10.7 C 9.43 g/m*3 10.7 C 0 km/h
603 26-10-2020 02:10:00 10.7 C 9.43 g/m*3 10.7 C 1.6 km/h
604 26-10-2020 02:15:00 10.7 C 9.43 g/m*3 10.7 C 4.8 km/h
605 26-10-2020 02:20:00 10.7 C 9.33 g/m*3 10.7 C 3.2 km/h
606 26-10-2020 02:25:00 10.7 C 9.33 g/m*3 10.7 C 1.6 km/h
607 26-10-2020 02:30:00 10.7 C 9.33 g/m*3 10.7 C 0 km/h
608 26-10-2020 02:35:00 10.7 C 9.33 g/m*3 10.7 C 0 km/h
609 26-10-2020 02:40:00 10.6 C 9.27 g/m*3 10.6 C 3.2 km/h
610 26-10-2020 02:45:00 10.6 C 9.27 g/m*3 10.6 C 0 km/h
611 26-10-2020 02:50:00 10.6 C 9.27 g/m*3 10.6 C 0 km/h
612 26-10-2020 02:55:00 10.6 C 9.27 g/m*3 10.6 C 1.6 km/h
613 26-10-2020 03:00:00 10.6 C 9.27 g/m*3 10.6 C 0 km/h
614 26-10-2020 03:05:00 10.6 C 9.27 g/m*3 10.6 C 0 km/h
615 26-10-2020 03:10:00 10.6 C 9.27 g/m*3 10.6 C 1.6 km/h
616 26-10-2020 03:15:00 10.6 C 9.27 g/m*3 10.6 C 1.6 km/h
617 26-10-2020 03:20:00 10.6 C 9.27 g/m*3 10.6 C 0 km/h
618 26-10-2020 03:25:00 10.7 C 9.33 g/m*3 10.7 C 3.2 km/h
619 26-10-2020 03:30:00 10.7 C 9.33 g/m*3 10.7 C 3.2 km/h
620 26-10-2020 03:35:00 10.7 C 9.33 g/m*3 10.7 C 0 km/h
621 26-10-2020 03:40:00 10.7 C 9.33 g/m*3 10.7 C 0 km/h
622 26-10-2020 03:45:00 10.7 C 9.33 g/m*3 10.7 C 0 km/h
623 26-10-2020 03:50:00 10.7 C 9.33 g/m*3 10.7 C 0 km/h
624 26-10-2020 03:55:00 10.7 C 9.33 g/m*3 10.7 C 0 km/h
625 26-10-2020 04:00:00 10.7 C 9.33 g/m*3 10.7 C 0 km/h
Sensor: Nr:Datum:Temp:Abs-Feuchte:Windchill:Wind:
Aussen-T/F 626 26-10-2020 04:05:00 10.6 C 9.27 g/m*3 10.6 C 0 km/h
627 26-10-2020 04:10:00 10.6 C 9.27 g/m*3 10.6 C 0 km/h
628 26-10-2020 04:15:00 10.6 C 9.27 g/m*3 10.6 C 0 km/h
629 26-10-2020 04:20:00 10.6 C 9.27 g/m*3 10.6 C 0 km/h
630 26-10-2020 04:25:00 10.6 C 9.37 g/m*3 10.6 C 0 km/h
631 26-10-2020 04:30:00 10.6 C 9.37 g/m*3 10.6 C 0 km/h
632 26-10-2020 04:35:00 10.6 C 9.37 g/m*3 10.6 C 0 km/h
633 26-10-2020 04:40:00 10.6 C 9.37 g/m*3 10.6 C 1.6 km/h
634 26-10-2020 04:45:00 10.7 C 9.43 g/m*3 10.7 C 1.6 km/h
635 26-10-2020 04:50:00 10.7 C 9.43 g/m*3 10.7 C 0 km/h
636 26-10-2020 04:55:00 10.7 C 9.43 g/m*3 10.7 C 0 km/h
637 26-10-2020 05:00:00 10.7 C 9.43 g/m*3 10.7 C 0 km/h
638 26-10-2020 05:05:00 10.7 C 9.43 g/m*3 10.7 C 0 km/h
639 26-10-2020 05:10:00 10.7 C 9.43 g/m*3 10.7 C 0 km/h
640 26-10-2020 05:15:00 10.7 C 9.43 g/m*3 10.7 C 0 km/h
641 26-10-2020 05:20:00 10.7 C 9.43 g/m*3 10.7 C 0 km/h
642 26-10-2020 05:25:00 10.7 C 9.43 g/m*3 10.7 C 0 km/h
643 26-10-2020 05:30:00 10.7 C 9.43 g/m*3 10.7 C 0 km/h
644 26-10-2020 05:35:00 10.7 C 9.43 g/m*3 10.7 C 3.2 km/h
645 26-10-2020 05:40:00 10.7 C 9.43 g/m*3 10.7 C 1.6 km/h
646 26-10-2020 05:45:00 10.6 C 9.37 g/m*3 10.6 C 0 km/h
647 26-10-2020 05:50:00 10.6 C 9.37 g/m*3 10.6 C 1.6 km/h
648 26-10-2020 05:55:00 10.6 C 9.37 g/m*3 10.6 C 0 km/h
649 26-10-2020 06:00:00 10.6 C 9.37 g/m*3 10.6 C 3.2 km/h
650 26-10-2020 06:05:00 10.5 C 9.31 g/m*3 10.5 C 0 km/h
Sensor: Nr:Datum:Temp:Abs-Feuchte:Windchill:Wind:
Aussen-T/F 651 26-10-2020 06:10:00 10.5 C 9.31 g/m*3 10.5 C 1.6 km/h
652 26-10-2020 06:15:00 10.5 C 9.31 g/m*3 10.5 C 0 km/h
653 26-10-2020 06:20:00 10.4 C 9.25 g/m*3 10.4 C 0 km/h
654 26-10-2020 06:25:00 10.4 C 9.25 g/m*3 10.4 C 0 km/h
655 26-10-2020 06:30:00 10.4 C 9.25 g/m*3 10.4 C 0 km/h
656 26-10-2020 06:35:00 10.4 C 9.25 g/m*3 10.4 C 0 km/h
657 26-10-2020 06:40:00 10.4 C 9.25 g/m*3 10.4 C 0 km/h
658 26-10-2020 06:45:00 10.3 C 9.19 g/m*3 10.3 C 0 km/h
659 26-10-2020 06:50:00 10.3 C 9.19 g/m*3 10.3 C 4.8 km/h
660 26-10-2020 06:55:00 10.3 C 9.19 g/m*3 10.3 C 1.6 km/h
661 26-10-2020 07:00:00 10.3 C 9.19 g/m*3 10.3 C 1.6 km/h
662 26-10-2020 07:05:00 10.2 C 9.14 g/m*3 10.2 C 4.8 km/h
663 26-10-2020 07:10:00 10.2 C 9.14 g/m*3 10.2 C 0 km/h
664 26-10-2020 07:15:00 10.1 C 9.08 g/m*3 10.1 C 3.2 km/h
665 26-10-2020 07:20:00 10 C 9.02 g/m*3 9.37 C 6.4 km/h
666 26-10-2020 07:25:00 9.9 C 8.96 g/m*3 9.9 C 3.2 km/h
667 26-10-2020 07:30:00 9.9 C 8.96 g/m*3 9.9 C 1.6 km/h
668 26-10-2020 07:35:00 9.9 C 8.96 g/m*3 9.25 C 6.4 km/h
669 26-10-2020 07:40:00 9.9 C 8.96 g/m*3 9.25 C 6.4 km/h
670 26-10-2020 07:45:00 9.9 C 8.96 g/m*3 9.9 C 4.8 km/h
671 26-10-2020 07:50:00 9.8 C 8.91 g/m*3 8.75 C 8.1 km/h
672 26-10-2020 07:55:00 9.8 C 8.91 g/m*3 8.75 C 8.1 km/h
673 26-10-2020 08:00:00 9.8 C 8.91 g/m*3 8.75 C 8.1 km/h
674 26-10-2020 08:05:00 9.8 C 8.91 g/m*3 9.8 C 4.8 km/h
675 26-10-2020 08:10:00 9.8 C 8.91 g/m*3 9.8 C 3.2 km/h
Sensor: Nr:Datum:Temp:Abs-Feuchte:Windchill:Wind:
Aussen-T/F 676 26-10-2020 08:15:00 9.8 C 8.91 g/m*3 9.8 C 1.6 km/h
677 26-10-2020 08:20:00 9.8 C 8.91 g/m*3 9.8 C 1.6 km/h
678 26-10-2020 08:25:00 9.8 C 8.91 g/m*3 9.8 C 3.2 km/h
679 26-10-2020 08:30:00 9.8 C 8.91 g/m*3 9.14 C 6.4 km/h
680 26-10-2020 08:35:00 9.8 C 8.91 g/m*3 9.8 C 3.2 km/h
681 26-10-2020 08:40:00 9.8 C 8.91 g/m*3 9.14 C 6.4 km/h
682 26-10-2020 08:45:00 9.8 C 8.91 g/m*3 9.8 C 4.8 km/h
683 26-10-2020 08:50:00 9.8 C 8.81 g/m*3 9.8 C 3.2 km/h
684 26-10-2020 08:55:00 9.8 C 8.81 g/m*3 9.14 C 6.4 km/h
685 26-10-2020 09:00:00 9.8 C 8.81 g/m*3 9.8 C 3.2 km/h
686 26-10-2020 09:05:00 9.8 C 8.81 g/m*3 9.8 C 0 km/h
687 26-10-2020 09:10:00 9.8 C 8.81 g/m*3 9.8 C 1.6 km/h
688 26-10-2020 09:15:00 9.9 C 8.87 g/m*3 9.9 C 3.2 km/h
689 26-10-2020 09:20:00 9.9 C 8.87 g/m*3 9.9 C 0 km/h
690 26-10-2020 09:25:00 10 C 8.93 g/m*3 8.68 C 9.7 km/h
691 26-10-2020 09:30:00 10.1 C 8.89 g/m*3 10.1 C 4.8 km/h
692 26-10-2020 09:35:00 10.1 C 8.79 g/m*3 9.1 C 8.1 km/h
693 26-10-2020 09:40:00 10.1 C 8.79 g/m*3 9.1 C 8.1 km/h
694 26-10-2020 09:45:00 10.2 C 8.76 g/m*3 9.6 C 6.4 km/h
695 26-10-2020 09:50:00 10.2 C 8.76 g/m*3 10.2 C 3.2 km/h
696 26-10-2020 09:55:00 10.3 C 8.71 g/m*3 10.3 C 3.2 km/h
697 26-10-2020 10:00:00 10.4 C 8.67 g/m*3 8.9 C 11.3 km/h
698 26-10-2020 10:05:00 10.6 C 8.78 g/m*3 9.4 C 9.7 km/h
699 26-10-2020 10:10:00 10.7 C 8.84 g/m*3 10.18 C 6.4 km/h
700 26-10-2020 10:15:00 10.7 C 8.74 g/m*3 10.7 C 1.6 km/h
Sensor: Nr:Datum:Temp:Abs-Feuchte:Windchill:Wind:
Aussen-T/F 701 26-10-2020 10:20:00 10.7 C 8.74 g/m*3 10.7 C 4.8 km/h
702 26-10-2020 10:25:00 10.7 C 8.55 g/m*3 9.52 C 9.7 km/h
703 26-10-2020 10:30:00 10.8 C 8.7 g/m*3 9.93 C 8.1 km/h
704 26-10-2020 10:35:00 10.9 C 8.85 g/m*3 10.04 C 8.1 km/h
705 26-10-2020 10:40:00 11.1 C 8.76 g/m*3 11.1 C 9.7 km/h
706 26-10-2020 10:45:00 11.2 C 8.82 g/m*3 11.2 C 9.7 km/h
707 26-10-2020 10:50:00 11.3 C 8.87 g/m*3 11.3 C 3.2 km/h
708 26-10-2020 10:55:00 11.3 C 8.77 g/m*3 11.3 C 6.4 km/h
709 26-10-2020 11:00:00 11.4 C 8.72 g/m*3 11.4 C 8.1 km/h
710 26-10-2020 11:05:00 11.5 C 8.78 g/m*3 11.5 C 9.7 km/h
711 26-10-2020 11:10:00 11.6 C 8.83 g/m*3 11.6 C 4.8 km/h
712 26-10-2020 11:15:00 11.6 C 8.73 g/m*3 11.6 C 11.3 km/h
713 26-10-2020 11:20:00 11.6 C 8.73 g/m*3 11.6 C 4.8 km/h
714 26-10-2020 11:25:00 11.6 C 8.73 g/m*3 11.6 C 4.8 km/h
715 26-10-2020 11:30:00 11.7 C 8.79 g/m*3 11.7 C 4.8 km/h
716 26-10-2020 11:35:00 11.7 C 8.68 g/m*3 11.7 C 4.8 km/h
717 26-10-2020 11:40:00 11.7 C 8.68 g/m*3 11.7 C 6.4 km/h
718 26-10-2020 11:45:00 11.7 C 8.58 g/m*3 11.7 C 8.1 km/h
719 26-10-2020 11:50:00 11.6 C 8.52 g/m*3 11.6 C 8.1 km/h
720 26-10-2020 11:55:00 11.6 C 8.63 g/m*3 11.6 C 8.1 km/h
721 26-10-2020 12:00:00 11.6 C 8.63 g/m*3 11.6 C 6.4 km/h
722 26-10-2020 12:05:00 11.6 C 8.63 g/m*3 11.6 C 8.1 km/h
723 26-10-2020 12:10:00 11.7 C 8.47 g/m*3 11.7 C 11.3 km/h
724 26-10-2020 12:15:00 11.7 C 8.47 g/m*3 11.7 C 12.9 km/h
725 26-10-2020 12:20:00 11.7 C 8.37 g/m*3 11.7 C 9.7 km/h
Sensor: Nr:Datum:Temp:Abs-Feuchte:Windchill:Wind:
Aussen-T/F 726 26-10-2020 12:25:00 11.8 C 8.53 g/m*3 11.8 C 6.4 km/h
727 26-10-2020 12:30:00 11.8 C 8.31 g/m*3 11.8 C 14.5 km/h
728 26-10-2020 12:35:00 11.8 C 8.31 g/m*3 11.8 C 11.3 km/h
729 26-10-2020 12:40:00 11.8 C 8.31 g/m*3 11.8 C 12.9 km/h
730 26-10-2020 12:45:00 11.8 C 8.21 g/m*3 11.8 C 12.9 km/h
731 26-10-2020 12:50:00 11.9 C 8.37 g/m*3 11.9 C 8.1 km/h
732 26-10-2020 12:55:00 12 C 8.42 g/m*3 12 C 4.8 km/h
733 26-10-2020 13:00:00 12.1 C 8.47 g/m*3 12.1 C 8.1 km/h
734 26-10-2020 13:05:00 12.1 C 8.26 g/m*3 12.1 C 11.3 km/h
735 26-10-2020 13:10:00 12 C 8.21 g/m*3 12 C 14.5 km/h
736 26-10-2020 13:15:00 12 C 8.1 g/m*3 12 C 11.3 km/h
737 26-10-2020 13:20:00 12 C 8.1 g/m*3 12 C 8.1 km/h
738 26-10-2020 13:25:00 12 C 8.21 g/m*3 12 C 11.3 km/h
739 26-10-2020 13:30:00 11.9 C 8.05 g/m*3 11.9 C 8.1 km/h
740 26-10-2020 13:35:00 11.9 C 8.05 g/m*3 11.9 C 9.7 km/h
741 26-10-2020 13:40:00 11.9 C 8.05 g/m*3 11.9 C 9.7 km/h
742 26-10-2020 13:45:00 12 C 8.1 g/m*3 12 C 11.3 km/h
743 26-10-2020 13:50:00 12.1 C 8.15 g/m*3 12.1 C 4.8 km/h
744 26-10-2020 13:55:00 12.1 C 8.15 g/m*3 12.1 C 3.2 km/h
745 26-10-2020 14:00:00 12.2 C 8.09 g/m*3 12.2 C 9.7 km/h
746 26-10-2020 14:05:00 12.2 C 8.09 g/m*3 12.2 C 9.7 km/h
747 26-10-2020 14:10:00 12.2 C 7.99 g/m*3 12.2 C 8.1 km/h
748 26-10-2020 14:15:00 12.2 C 7.88 g/m*3 12.2 C 8.1 km/h
749 26-10-2020 14:20:00 12.2 C 7.99 g/m*3 12.2 C 8.1 km/h
750 26-10-2020 14:25:00 12.2 C 8.09 g/m*3 12.2 C 3.2 km/h
Sensor: Nr:Datum:Temp:Abs-Feuchte:Windchill:Wind:
Aussen-T/F 751 26-10-2020 14:30:00 12.2 C 7.88 g/m*3 12.2 C 9.7 km/h
752 26-10-2020 14:35:00 12.2 C 7.88 g/m*3 12.2 C 6.4 km/h
753 26-10-2020 14:40:00 12.2 C 7.77 g/m*3 12.2 C 8.1 km/h
754 26-10-2020 14:45:00 12.1 C 7.94 g/m*3 12.1 C 9.7 km/h
755 26-10-2020 14:50:00 12.1 C 7.83 g/m*3 12.1 C 6.4 km/h
756 26-10-2020 14:55:00 12.2 C 8.09 g/m*3 12.2 C 1.6 km/h
757 26-10-2020 15:00:00 12.2 C 7.88 g/m*3 12.2 C 4.8 km/h
758 26-10-2020 15:05:00 12.3 C 8.04 g/m*3 12.3 C 1.6 km/h
759 26-10-2020 15:10:00 12.3 C 7.93 g/m*3 12.3 C 8.1 km/h
760 26-10-2020 15:15:00 12.3 C 7.82 g/m*3 12.3 C 6.4 km/h
761 26-10-2020 15:20:00 12.3 C 7.93 g/m*3 12.3 C 3.2 km/h
762 26-10-2020 15:25:00 12.3 C 7.93 g/m*3 12.3 C 6.4 km/h
763 26-10-2020 15:30:00 12.3 C 7.93 g/m*3 12.3 C 8.1 km/h
764 26-10-2020 15:35:00 12.2 C 7.77 g/m*3 12.2 C 4.8 km/h
765 26-10-2020 15:40:00 12.2 C 7.77 g/m*3 12.2 C 6.4 km/h
766 26-10-2020 15:45:00 12.2 C 7.99 g/m*3 12.2 C 6.4 km/h
767 26-10-2020 15:50:00 12.1 C 7.83 g/m*3 12.1 C 8.1 km/h
768 26-10-2020 15:55:00 12.1 C 7.94 g/m*3 12.1 C 3.2 km/h
769 26-10-2020 16:00:00 12.1 C 8.04 g/m*3 12.1 C 3.2 km/h
770 26-10-2020 16:05:00 12.1 C 7.94 g/m*3 12.1 C 3.2 km/h
771 26-10-2020 16:10:00 12.1 C 7.83 g/m*3 12.1 C 9.7 km/h
772 26-10-2020 16:15:00 12.1 C 8.04 g/m*3 12.1 C 4.8 km/h
773 26-10-2020 16:20:00 12.1 C 8.15 g/m*3 12.1 C 3.2 km/h
774 26-10-2020 16:25:00 12.1 C 8.04 g/m*3 12.1 C 3.2 km/h
775 26-10-2020 16:30:00 12.2 C 8.2 g/m*3 12.2 C 3.2 km/h
Sensor: Nr:Datum:Temp:Abs-Feuchte:Windchill:Wind:
Aussen-T/F 776 26-10-2020 16:35:00 12.2 C 8.42 g/m*3 12.2 C 3.2 km/h
777 26-10-2020 16:40:00 12.2 C 8.2 g/m*3 12.2 C 4.8 km/h
778 26-10-2020 16:45:00 12 C 8.1 g/m*3 12 C 4.8 km/h
779 26-10-2020 16:50:00 11.8 C 8.1 g/m*3 11.8 C 1.6 km/h
780 26-10-2020 16:55:00 11.6 C 8 g/m*3 11.6 C 1.6 km/h
781 26-10-2020 17:00:00 11.4 C 8.01 g/m*3 11.4 C 1.6 km/h
782 26-10-2020 17:05:00 11.2 C 8.01 g/m*3 11.2 C 3.2 km/h
783 26-10-2020 17:10:00 11 C 8.01 g/m*3 11 C 3.2 km/h
784 26-10-2020 17:15:00 10.8 C 8.01 g/m*3 10.8 C 0 km/h
785 26-10-2020 17:20:00 10.7 C 7.96 g/m*3 10.7 C 0 km/h
786 26-10-2020 17:25:00 10.5 C 7.86 g/m*3 10.5 C 0 km/h
787 26-10-2020 17:30:00 10.3 C 7.85 g/m*3 10.3 C 4.8 km/h
788 26-10-2020 17:35:00 10.2 C 7.9 g/m*3 10.2 C 3.2 km/h
789 26-10-2020 17:40:00 10.1 C 7.85 g/m*3 10.1 C 4.8 km/h
790 26-10-2020 17:45:00 9.8 C 7.79 g/m*3 9.8 C 0 km/h
791 26-10-2020 17:50:00 9.7 C 7.74 g/m*3 9.7 C 4.8 km/h
792 26-10-2020 17:55:00 9.6 C 7.79 g/m*3 9.6 C 3.2 km/h
793 26-10-2020 18:00:00 9.4 C 7.69 g/m*3 9.4 C 4.8 km/h
794 26-10-2020 18:05:00 9.2 C 7.68 g/m*3 9.2 C 1.6 km/h
795 26-10-2020 18:10:00 9.1 C 7.63 g/m*3 9.1 C 1.6 km/h
796 26-10-2020 18:15:00 8.9 C 7.53 g/m*3 8.9 C 3.2 km/h
797 26-10-2020 18:20:00 8.8 C 7.49 g/m*3 8.8 C 4.8 km/h
798 26-10-2020 18:25:00 8.6 C 7.39 g/m*3 8.6 C 4.8 km/h
799 26-10-2020 18:30:00 8.6 C 7.48 g/m*3 7.75 C 6.4 km/h
800 26-10-2020 18:35:00 8.4 C 7.38 g/m*3 7.52 C 6.4 km/h
Sensor: Nr:Datum:Temp:Abs-Feuchte:Windchill:Wind:
Aussen-T/F 801 26-10-2020 18:40:00 8.3 C 7.33 g/m*3 8.3 C 3.2 km/h
802 26-10-2020 18:45:00 8.2 C 7.29 g/m*3 8.2 C 4.8 km/h
803 26-10-2020 18:50:00 8.1 C 7.32 g/m*3 8.1 C 3.2 km/h
804 26-10-2020 18:55:00 7.9 C 7.23 g/m*3 7.9 C 4.8 km/h
805 26-10-2020 19:00:00 7.9 C 7.23 g/m*3 7.9 C 3.2 km/h
806 26-10-2020 19:05:00 7.8 C 7.26 g/m*3 7.8 C 3.2 km/h
807 26-10-2020 19:10:00 7.8 C 7.35 g/m*3 7.8 C 0 km/h
808 26-10-2020 19:15:00 7.8 C 7.35 g/m*3 7.8 C 3.2 km/h
809 26-10-2020 19:20:00 7.8 C 7.35 g/m*3 7.8 C 3.2 km/h
810 26-10-2020 19:25:00 7.7 C 7.3 g/m*3 7.7 C 0 km/h
811 26-10-2020 19:30:00 7.7 C 7.3 g/m*3 7.7 C 1.6 km/h
812 26-10-2020 19:35:00 7.6 C 7.25 g/m*3 7.6 C 3.2 km/h
813 26-10-2020 19:40:00 7.6 C 7.25 g/m*3 6.6 C 6.4 km/h
814 26-10-2020 19:45:00 7.6 C 7.33 g/m*3 7.6 C 3.2 km/h
815 26-10-2020 19:50:00 7.5 C 7.28 g/m*3 7.5 C 0 km/h
816 26-10-2020 19:55:00 7.4 C 7.24 g/m*3 7.4 C 0 km/h
817 26-10-2020 20:00:00 7.4 C 7.24 g/m*3 7.4 C 0 km/h
818 26-10-2020 20:05:00 7.4 C 7.24 g/m*3 7.4 C 3.2 km/h
819 26-10-2020 20:10:00 7.5 C 7.28 g/m*3 7.5 C 0 km/h
820 26-10-2020 20:15:00 7.5 C 7.28 g/m*3 7.5 C 1.6 km/h
821 26-10-2020 20:20:00 7.5 C 7.28 g/m*3 7.5 C 0 km/h
822 26-10-2020 20:25:00 7.5 C 7.28 g/m*3 7.5 C 3.2 km/h
823 26-10-2020 20:30:00 7.6 C 7.33 g/m*3 7.6 C 1.6 km/h
824 26-10-2020 20:35:00 7.6 C 7.33 g/m*3 7.6 C 4.8 km/h
825 26-10-2020 20:40:00 7.7 C 7.38 g/m*3 7.7 C 3.2 km/h
Sensor: Nr:Datum:Temp:Abs-Feuchte:Windchill:Wind:
Aussen-T/F 826 26-10-2020 20:45:00 7.8 C 7.43 g/m*3 7.8 C 1.6 km/h
827 26-10-2020 20:50:00 7.9 C 7.39 g/m*3 7.9 C 1.6 km/h
828 26-10-2020 20:55:00 8.1 C 7.49 g/m*3 8.1 C 3.2 km/h
829 26-10-2020 21:00:00 8.1 C 7.49 g/m*3 8.1 C 3.2 km/h
830 26-10-2020 21:05:00 8.2 C 7.54 g/m*3 8.2 C 1.6 km/h
831 26-10-2020 21:10:00 8.3 C 7.5 g/m*3 8.3 C 4.8 km/h
832 26-10-2020 21:15:00 8.3 C 7.5 g/m*3 6.99 C 8.1 km/h
833 26-10-2020 21:20:00 8.4 C 7.47 g/m*3 8.4 C 3.2 km/h
834 26-10-2020 21:25:00 8.3 C 7.42 g/m*3 8.3 C 1.6 km/h
835 26-10-2020 21:30:00 8.3 C 7.42 g/m*3 8.3 C 1.6 km/h
836 26-10-2020 21:35:00 8.2 C 7.37 g/m*3 8.2 C 0 km/h
837 26-10-2020 21:40:00 8 C 7.28 g/m*3 8 C 3.2 km/h
838 26-10-2020 21:45:00 7.9 C 7.31 g/m*3 7.9 C 3.2 km/h
839 26-10-2020 21:50:00 7.8 C 7.26 g/m*3 7.8 C 3.2 km/h
840 26-10-2020 21:55:00 7.7 C 7.22 g/m*3 7.7 C 3.2 km/h
841 26-10-2020 22:00:00 7.7 C 7.22 g/m*3 7.7 C 3.2 km/h
842 26-10-2020 22:05:00 7.7 C 7.3 g/m*3 7.7 C 0 km/h
843 26-10-2020 22:10:00 7.7 C 7.3 g/m*3 7.7 C 3.2 km/h
844 26-10-2020 22:15:00 7.8 C 7.35 g/m*3 7.8 C 0 km/h
845 26-10-2020 22:20:00 7.8 C 7.35 g/m*3 7.8 C 1.6 km/h
846 26-10-2020 22:25:00 7.8 C 7.35 g/m*3 7.8 C 1.6 km/h
847 26-10-2020 22:30:00 7.8 C 7.35 g/m*3 7.8 C 1.6 km/h
848 26-10-2020 22:35:00 7.8 C 7.43 g/m*3 7.8 C 1.6 km/h
849 26-10-2020 22:40:00 7.8 C 7.43 g/m*3 7.8 C 1.6 km/h
850 26-10-2020 22:45:00 7.8 C 7.35 g/m*3 7.8 C 1.6 km/h
Sensor: Nr:Datum:Temp:Abs-Feuchte:Windchill:Wind:
Aussen-T/F 851 26-10-2020 22:50:00 7.8 C 7.43 g/m*3 7.8 C 3.2 km/h
852 26-10-2020 22:55:00 7.8 C 7.43 g/m*3 7.8 C 4.8 km/h
853 26-10-2020 23:00:00 7.8 C 7.43 g/m*3 7.8 C 3.2 km/h
854 26-10-2020 23:05:00 7.7 C 7.38 g/m*3 7.7 C 1.6 km/h
855 26-10-2020 23:10:00 7.7 C 7.38 g/m*3 7.7 C 1.6 km/h
856 26-10-2020 23:15:00 7.7 C 7.38 g/m*3 7.7 C 3.2 km/h
857 26-10-2020 23:20:00 7.7 C 7.38 g/m*3 7.7 C 3.2 km/h
858 26-10-2020 23:25:00 7.7 C 7.38 g/m*3 7.7 C 1.6 km/h
859 26-10-2020 23:30:00 7.7 C 7.38 g/m*3 7.7 C 0 km/h
860 26-10-2020 23:35:00 7.6 C 7.33 g/m*3 7.6 C 4.8 km/h
861 26-10-2020 23:40:00 7.6 C 7.33 g/m*3 7.6 C 0 km/h
862 26-10-2020 23:45:00 7.6 C 7.33 g/m*3 7.6 C 1.6 km/h
863 26-10-2020 23:50:00 7.6 C 7.41 g/m*3 6.16 C 8.1 km/h
864 26-10-2020 23:55:00 7.6 C 7.41 g/m*3 7.6 C 1.6 km/h

Legende:
   Min
   Max


Maximal/Minimal-Werte vom 24.10.2020 - 26.10.2020

Sensor Min Max Avg
Temp
(Aussen-T/F)
7.4 °C
26-10-2020  19:55:00
16.4 °C
25-10-2020  13:45:00
12.26 °C
Abs-Feuchte
(Aussen-T/F)
7.22 g/m*3
26-10-2020  21:55:00
10.97 g/m*3
25-10-2020  14:35:00
9.45 g/m*3
Windchill
(Aussen-T/F)
6.16 C
26-10-2020  23:50:00
16.4 C
25-10-2020  13:45:00
12.22 C

Die Daten stammen von einer Davis Vantage Pro 2 Wetter-Station und werden unter Linux mit der Software wview2wettercgi und aufbereitet. Alle Angaben erfolgen ohne Gewähr für ihre Vollständigkeit oder Richtigkeit.
Kontakt: Rainer Krienke krienke@uni-koblenz.de . Meine Webseiten an der Uni Koblenz oder privat.
Version: $Revision: 0.78 $